Time;durP1;ratioP1;P1;durP2;ratioP2;P2;SDS_P1;SDS_P2;PMS_P1;PMS_P2;Temp;Humidity;BMP_temperature;BMP_pressure;BME280_temperature;BME280_humidity;BME280_pressure;Samples;Min_cycle;Max_cycle;Signal;HPM_P1;HPM_P2
2021/08/22 00:02:02;;;;;;;6.47;4.40;;;;;;;27.68;62.80;98075.50;5087688;28;20197;-75
2021/08/22 00:04:30;;;;;;;5.03;4.40;;;;;;;27.77;61.99;98095.56;5089324;28;20204;-75
2021/08/22 00:06:57;;;;;;;7.23;4.73;;;;;;;27.91;61.08;98101.03;5080609;28;20201;-76
2021/08/22 00:09:26;;;;;;;4.97;4.47;;;;;;;27.78;61.79;98097.22;5089231;28;20704;-75
2021/08/22 00:11:53;;;;;;;5.03;3.97;;;;;;;28.15;59.47;98105.13;5084617;28;20211;-75
2021/08/22 00:14:20;;;;;;;7.43;4.67;;;;;;;28.03;59.12;98106.81;5087105;28;20207;-74
2021/08/22 00:16:48;;;;;;;9.70;4.30;;;;;;;28.09;67.17;98102.81;5087857;28;20560;-74
2021/08/22 00:19:15;;;;;;;10.33;4.77;;;;;;;27.35;71.53;98160.94;5083833;28;20228;-75
2021/08/22 00:21:43;;;;;;;5.67;4.57;;;;;;;25.73;81.84;98163.06;5087980;28;20204;-74
2021/08/22 00:24:10;;;;;;;8.97;4.80;;;;;;;25.32;91.18;98192.81;5080525;28;20232;-72
2021/08/22 00:26:39;;;;;;;11.13;5.40;;;;;;;24.43;100.00;98221.75;5090523;28;20207;-68
2021/08/22 00:29:06;;;;;;;8.33;5.03;;;;;;;24.03;100.00;98227.47;5080397;28;20597;-68
2021/08/22 00:31:33;;;;;;;6.83;4.23;;;;;;;24.55;100.00;98217.56;5088624;28;20215;-70
2021/08/22 00:34:00;;;;;;;8.77;4.07;;;;;;;23.66;100.00;98219.69;5075299;28;20193;-68
2021/08/22 00:36:28;;;;;;;6.73;3.20;;;;;;;22.68;100.00;98220.47;5085685;28;20210;-69
2021/08/22 00:38:55;;;;;;;10.77;4.03;;;;;;;25.35;92.14;98222.31;5077028;28;20883;-69
2021/08/22 00:41:22;;;;;;;5.50;2.90;;;;;;;25.85;100.00;98218.94;5086139;28;20206;-68
2021/08/22 00:43:51;;;;;;;10.93;3.17;;;;;;;27.01;96.34;98221.56;5090239;28;20220;-69
2021/08/22 00:46:18;;;;;;;6.23;3.00;;;;;;;25.96;91.63;98215.00;5080784;28;20206;-69
2021/08/22 00:48:46;;;;;;;4.90;2.90;;;;;;;26.25;89.60;98204.72;5078533;28;20669;-68
2021/08/22 00:51:15;;;;;;;4.43;2.33;;;;;;;26.21;87.71;98191.94;5081294;28;20207;-68
2021/08/22 00:53:43;;;;;;;4.13;2.70;;;;;;;25.84;92.03;98170.03;5084619;28;20563;-68
2021/08/22 00:56:20;;;;;;;3.70;2.73;;;;;;;25.75;90.12;98160.84;5090624;28;20210;-68
2021/08/22 00:58:49;;;;;;;7.73;3.07;;;;;;;26.20;90.11;98147.34;5090065;28;20278;-67
2021/08/22 01:01:19;;;;;;;4.43;2.90;;;;;;;26.77;83.92;98135.19;5078489;28;20654;-68
2021/08/22 01:03:51;;;;;;;6.10;3.40;;;;;;;26.74;85.63;98127.56;5084436;28;21019;-68
2021/08/22 01:06:30;;;;;;;5.33;3.77;;;;;;;27.11;82.53;98125.47;5093081;28;20199;-68
2021/08/22 01:09:02;;;;;;;5.40;3.50;;;;;;;27.26;81.30;98111.50;5090350;28;20743;-68
2021/08/22 01:11:32;;;;;;;3.93;2.90;;;;;;;27.10;79.30;98117.56;5085407;28;20615;-67
2021/08/22 01:14:04;;;;;;;5.93;3.03;;;;;;;27.17;82.03;98121.53;5082523;28;20206;-67
2021/08/22 01:16:35;;;;;;;5.83;3.57;;;;;;;26.84;81.09;98121.91;5079716;28;20202;-68
2021/08/22 01:19:09;;;;;;;7.03;3.90;;;;;;;26.77;82.20;98124.22;5094353;28;20231;-68
2021/08/22 01:21:37;;;;;;;7.07;3.53;;;;;;;26.82;82.31;98115.91;5086978;28;20256;-68
2021/08/22 01:24:04;;;;;;;6.17;4.30;;;;;;;27.04;79.07;98110.56;5089625;28;20657;-69
2021/08/22 01:26:35;;;;;;;5.07;3.63;;;;;;;26.09;86.39;98095.84;5083310;28;20555;-68
2021/08/22 01:29:05;;;;;;;7.20;4.20;;;;;;;26.83;85.85;98087.41;5088494;28;20237;-68
2021/08/22 01:31:37;;;;;;;6.63;4.23;;;;;;;26.62;82.15;98089.75;5079528;28;20213;-67
2021/08/22 01:34:06;;;;;;;7.10;4.07;;;;;;;26.57;83.95;98092.56;5085188;28;20195;-68
2021/08/22 01:36:35;;;;;;;5.10;3.80;;;;;;;26.39;84.59;98104.34;5089837;28;20204;-68
2021/08/22 01:39:02;;;;;;;5.93;3.63;;;;;;;26.57;82.03;98100.78;5084787;28;20236;-68
2021/08/22 01:41:30;;;;;;;4.73;3.30;;;;;;;26.95;81.78;98113.19;5090032;28;20207;-67
2021/08/22 01:43:58;;;;;;;6.60;4.17;;;;;;;26.95;84.65;98113.19;5075899;28;20226;-67
2021/08/22 01:46:29;;;;;;;6.20;4.03;;;;;;;27.06;85.20;98100.91;5084627;28;20202;-67
2021/08/22 01:48:57;;;;;;;6.47;3.63;;;;;;;26.97;84.04;98108.25;5093006;28;20234;-67
2021/08/22 01:51:28;;;;;;;5.10;4.07;;;;;;;26.69;82.15;98109.31;5079931;28;20202;-67
2021/08/22 01:53:58;;;;;;;5.03;3.90;;;;;;;26.67;85.21;98105.25;5072631;22;20274;-72
2021/08/22 01:56:26;;;;;;;6.83;4.00;;;;;;;26.64;86.26;98105.84;5032411;28;20205;-72
2021/08/22 01:58:53;;;;;;;8.07;3.90;;;;;;;26.08;86.20;98103.22;5033359;28;20209;-72
2021/08/22 02:01:21;;;;;;;6.60;3.90;;;;;;;26.19;88.53;98099.19;5025731;28;20204;-72
2021/08/22 02:03:51;;;;;;;6.20;3.67;;;;;;;26.42;85.52;98097.44;5022036;28;20233;-72
2021/08/22 02:06:24;;;;;;;6.07;3.80;;;;;;;25.99;88.92;98099.53;5014749;28;20206;-72
2021/08/22 02:08:56;;;;;;;5.67;4.10;;;;;;;26.13;88.32;98097.66;5016134;28;20212;-72
2021/08/22 02:11:26;;;;;;;8.43;4.87;;;;;;;26.00;89.47;98090.22;5011417;28;20215;-72
2021/08/22 02:13:55;;;;;;;5.43;3.87;;;;;;;26.41;88.20;98096.63;5004874;28;20312;-72
2021/08/22 02:16:26;;;;;;;6.23;3.80;;;;;;;26.09;89.27;98093.09;5006427;28;20564;-72
2021/08/22 02:18:53;;;;;;;5.33;3.90;;;;;;;26.18;86.01;98094.03;5015583;28;20214;-72
2021/08/22 02:21:21;;;;;;;5.70;3.47;;;;;;;25.76;90.87;98089.47;5026637;28;20217;-72
2021/08/22 02:23:49;;;;;;;5.77;4.20;;;;;;;26.33;85.39;98091.03;5009103;28;20228;-72
2021/08/22 02:26:18;;;;;;;6.17;4.20;;;;;;;26.37;85.75;98081.94;5018635;28;20275;-72
2021/08/22 02:28:52;;;;;;;6.07;4.10;;;;;;;26.62;81.92;98086.16;5013887;28;20263;-72
2021/08/22 02:31:19;;;;;;;6.57;3.60;;;;;;;26.65;83.75;98072.69;5021116;28;20212;-71
2021/08/22 02:33:46;;;;;;;5.63;3.90;;;;;;;26.32;83.68;98067.53;5006706;28;20214;-71
2021/08/22 02:36:13;;;;;;;5.27;4.00;;;;;;;26.44;84.51;98065.94;5014385;28;20212;-71
2021/08/22 02:38:41;;;;;;;5.67;3.57;;;;;;;25.79;90.92;98066.19;5016638;28;20214;-72
2021/08/22 02:41:08;;;;;;;4.77;3.60;;;;;;;26.25;88.72;98067.91;5022019;28;20578;-72
2021/08/22 02:43:37;;;;;;;6.23;3.50;;;;;;;26.08;92.49;98061.34;5012538;28;20237;-72
2021/08/22 02:46:04;;;;;;;5.50;3.80;;;;;;;26.30;85.65;98067.03;5016343;28;20577;-72
2021/08/22 02:48:31;;;;;;;5.87;3.73;;;;;;;26.12;88.11;98059.66;5006904;28;20236;-72
2021/08/22 02:50:59;;;;;;;5.30;3.70;;;;;;;26.36;85.65;98058.41;5016468;28;20215;-72
2021/08/22 02:53:26;;;;;;;6.83;3.83;;;;;;;25.54;93.56;98059.16;5009391;28;20240;-72
2021/08/22 02:55:54;;;;;;;6.60;3.83;;;;;;;25.90;90.38;98046.56;5010203;28;20213;-72
2021/08/22 02:58:21;;;;;;;5.70;3.60;;;;;;;26.54;84.82;98068.47;5013765;28;20713;-72
2021/08/22 03:00:50;;;;;;;6.50;4.23;;;;;;;26.15;87.57;98068.06;5025024;28;20562;-72
2021/08/22 03:03:17;;;;;;;4.93;3.67;;;;;;;26.31;85.99;98065.91;5018151;28;20237;-72
2021/08/22 03:05:44;;;;;;;5.97;3.73;;;;;;;26.18;85.79;98058.44;5008498;28;20209;-72
2021/08/22 03:08:12;;;;;;;5.03;3.60;;;;;;;25.86;89.35;98072.09;5016283;28;20214;-72
2021/08/22 03:10:39;;;;;;;5.40;3.43;;;;;;;26.42;84.44;98064.59;5005436;28;20212;-72
2021/08/22 03:13:07;;;;;;;5.33;3.33;;;;;;;26.15;85.53;98067.28;5009754;28;20220;-72
2021/08/22 03:15:34;;;;;;;4.63;3.10;;;;;;;25.87;89.48;98065.50;5004503;28;20887;-72
2021/08/22 03:18:03;;;;;;;4.27;3.43;;;;;;;26.27;86.39;98059.41;5011514;28;20212;-72
2021/08/22 03:20:30;;;;;;;4.00;3.30;;;;;;;26.40;86.62;98070.38;5013093;28;20205;-72
2021/08/22 03:22:57;;;;;;;4.23;3.00;;;;;;;26.35;85.73;98069.66;5007352;28;20238;-72
2021/08/22 03:25:24;;;;;;;5.80;3.33;;;;;;;26.17;87.64;98070.50;5015186;28;20676;-72
2021/08/22 03:27:52;;;;;;;6.17;3.20;;;;;;;26.16;87.06;98064.25;5020167;28;20589;-72
2021/08/22 03:30:19;;;;;;;3.70;3.03;;;;;;;25.62;87.12;98072.19;5007533;28;20205;-72
2021/08/22 03:32:47;;;;;;;6.00;3.13;;;;;;;25.89;89.81;98066.03;5019594;28;20282;-72
2021/08/22 03:35:16;;;;;;;5.13;2.67;;;;;;;25.81;90.48;98070.25;5014619;28;20208;-72
2021/08/22 03:37:43;;;;;;;6.20;3.23;;;;;;;25.24;93.62;98061.47;5011266;28;20211;-72
2021/08/22 03:40:11;;;;;;;6.37;3.07;;;;;;;25.70;89.51;98066.03;5014514;28;20220;-72
2021/08/22 03:42:39;;;;;;;4.27;2.90;;;;;;;25.20;89.93;98071.38;5016800;28;20242;-72
2021/08/22 03:45:07;;;;;;;7.77;3.13;;;;;;;25.75;88.33;98067.88;5016976;28;20225;-72
2021/08/22 03:47:34;;;;;;;6.10;3.70;;;;;;;25.85;88.47;98067.72;5021349;28;20580;-72
2021/08/22 03:50:01;;;;;;;5.77;3.60;;;;;;;25.45;90.73;98068.34;5014344;28;20335;-72
2021/08/22 03:52:30;;;;;;;6.20;3.63;;;;;;;25.16;93.25;98070.31;5014738;28;21712;-72
2021/08/22 03:54:57;;;;;;;7.17;3.30;;;;;;;25.84;85.75;98066.13;5018770;28;20670;-72
2021/08/22 03:57:24;;;;;;;7.13;3.93;;;;;;;25.60;89.17;98070.84;5009187;28;20204;-72
2021/08/22 03:59:52;;;;;;;7.77;3.67;;;;;;;25.78;90.41;98072.75;5011603;28;20216;-72
2021/08/22 04:02:21;;;;;;;5.97;3.73;;;;;;;25.90;88.75;98073.91;5017908;28;20205;-72
2021/08/22 04:04:48;;;;;;;7.63;3.80;;;;;;;25.77;89.18;98082.06;5012175;28;20250;-72
2021/08/22 04:07:16;;;;;;;5.63;3.87;;;;;;;25.89;89.64;98083.25;5014214;28;20204;-71
2021/08/22 04:09:44;;;;;;;7.53;3.53;;;;;;;25.86;87.14;98085.75;5011438;28;20212;-72
2021/08/22 04:12:12;;;;;;;8.33;4.43;;;;;;;25.79;91.43;98079.88;5014120;28;20711;-72
2021/08/22 04:14:39;;;;;;;5.20;3.90;;;;;;;25.59;88.84;98080.97;5008180;28;20203;-72
2021/08/22 04:17:07;;;;;;;7.83;4.10;;;;;;;25.46;92.83;98086.34;5011575;28;20214;-72
2021/08/22 04:19:34;;;;;;;5.67;3.83;;;;;;;25.49;92.27;98085.78;5005884;28;20675;-72
2021/08/22 04:22:01;;;;;;;5.23;3.63;;;;;;;25.48;91.92;98087.69;5016130;28;20296;-72
2021/08/22 04:24:29;;;;;;;6.53;4.07;;;;;;;25.57;92.50;98083.19;5018441;28;20232;-72
2021/08/22 04:26:57;;;;;;;7.83;3.93;;;;;;;25.87;90.01;98090.94;5018646;28;20220;-72
2021/08/22 04:29:25;;;;;;;6.17;3.43;;;;;;;25.48;93.74;98089.63;5017302;28;20222;-72
2021/08/22 04:31:54;;;;;;;6.40;3.50;;;;;;;25.22;94.05;98096.47;5016990;28;20206;-72
2021/08/22 04:34:21;;;;;;;5.17;3.47;;;;;;;25.32;91.31;98099.09;5013563;28;20225;-72
2021/08/22 04:36:49;;;;;;;4.30;3.00;;;;;;;25.75;87.47;98111.63;5013074;28;20209;-72
2021/08/22 04:39:16;;;;;;;5.60;3.63;;;;;;;25.94;86.91;98107.00;5012426;28;20204;-72
2021/08/22 04:41:44;;;;;;;5.17;3.40;;;;;;;25.64;91.59;98110.97;5015065;28;20852;-72
2021/08/22 04:44:13;;;;;;;5.97;3.20;;;;;;;25.87;88.07;98115.56;5012830;28;20236;-72
2021/08/22 04:46:41;;;;;;;5.07;3.60;;;;;;;25.77;91.15;98109.41;5016707;28;20212;-72
2021/08/22 04:49:08;;;;;;;4.03;3.33;;;;;;;25.85;87.20;98109.53;5008028;28;20219;-72
2021/08/22 04:51:35;;;;;;;7.37;3.97;;;;;;;25.84;88.83;98110.66;5011807;28;20212;-72
2021/08/22 04:54:03;;;;;;;8.03;3.47;;;;;;;25.58;91.51;98109.41;5013377;28;20624;-72
2021/08/22 04:56:30;;;;;;;4.20;3.50;;;;;;;25.90;88.08;98105.94;5013099;28;20208;-72
2021/08/22 04:58:57;;;;;;;5.43;3.33;;;;;;;25.99;88.05;98112.41;5007767;28;20210;-72
2021/08/22 05:01:26;;;;;;;4.63;3.80;;;;;;;26.10;87.40;98114.66;5011351;28;20214;-72
2021/08/22 05:03:53;;;;;;;4.50;3.07;;;;;;;26.19;86.23;98115.63;5013071;28;20236;-72
2021/08/22 05:06:20;;;;;;;5.60;3.40;;;;;;;26.53;84.15;98112.59;5014648;28;20671;-72
2021/08/22 05:08:48;;;;;;;6.03;3.53;;;;;;;26.37;85.42;98116.69;5014098;28;20684;-72
2021/08/22 05:11:15;;;;;;;4.50;3.33;;;;;;;26.69;85.28;98111.22;5010887;28;20654;-72
2021/08/22 05:13:42;;;;;;;3.57;3.10;;;;;;;26.64;83.21;98108.56;5002768;28;20233;-72
2021/08/22 05:16:10;;;;;;;4.00;3.10;;;;;;;26.22;86.41;98122.41;5015750;28;20202;-72
2021/08/22 05:18:38;;;;;;;5.40;3.30;;;;;;;26.21;87.08;98120.81;5013756;28;20205;-72
2021/08/22 05:21:06;;;;;;;5.50;3.27;;;;;;;26.32;85.13;98122.25;5018391;28;20213;-71
2021/08/22 05:23:33;;;;;;;6.07;3.17;;;;;;;26.19;87.55;98123.81;5016399;28;20237;-71
2021/08/22 05:26:00;;;;;;;7.03;3.40;;;;;;;26.27;90.13;98134.09;5021868;28;20216;-71
2021/08/22 05:28:28;;;;;;;5.63;3.20;;;;;;;26.72;86.71;98129.81;5016249;28;20560;-71
2021/08/22 05:30:56;;;;;;;4.33;3.13;;;;;;;26.69;88.00;98133.97;5019500;28;20202;-71
2021/08/22 05:33:23;;;;;;;4.60;3.13;;;;;;;25.84;86.66;98132.53;5014654;28;20887;-71
2021/08/22 05:35:51;;;;;;;6.03;3.47;;;;;;;26.63;87.36;98137.06;5015169;28;20199;-71
2021/08/22 05:38:19;;;;;;;5.17;3.03;;;;;;;26.80;86.75;98140.06;5014508;28;20207;-71
2021/08/22 05:40:46;;;;;;;4.70;3.10;;;;;;;26.48;87.42;98143.59;5015126;28;20572;-71
2021/08/22 05:43:13;;;;;;;3.20;2.73;;;;;;;26.79;84.49;98143.91;5015245;28;20230;-71
2021/08/22 05:45:41;;;;;;;4.33;2.80;;;;;;;26.83;83.73;98147.66;5013049;28;20222;-72
2021/08/22 05:48:08;;;;;;;5.03;3.33;;;;;;;26.63;86.10;98134.34;5020694;28;20669;-71
2021/08/22 05:50:35;;;;;;;4.47;2.97;;;;;;;26.86;82.66;98134.19;5019045;28;20216;-71
2021/08/22 05:53:04;;;;;;;4.47;3.13;;;;;;;27.26;81.37;98132.63;5016079;28;20238;-71
2021/08/22 05:55:31;;;;;;;4.97;3.57;;;;;;;26.35;86.58;98138.88;5004843;28;20204;-71
2021/08/22 05:57:58;;;;;;;4.07;3.17;;;;;;;26.82;85.74;98127.69;5019085;28;20674;-71
2021/08/22 06:00:26;;;;;;;3.90;2.80;;;;;;;27.02;89.39;98118.28;5015439;28;20666;-72
2021/08/22 06:02:53;;;;;;;5.00;3.40;;;;;;;27.23;85.95;98125.00;5013545;28;20726;-71
2021/08/22 06:05:20;;;;;;;4.47;2.90;;;;;;;26.94;84.33;98118.97;5015848;28;20702;-71
2021/08/22 06:07:48;;;;;;;4.73;2.97;;;;;;;27.70;79.99;98119.06;5008736;28;20212;-71
2021/08/22 06:10:16;;;;;;;4.60;2.70;;;;;;;27.98;84.54;98124.19;5019611;28;20660;-73
2021/08/22 06:12:43;;;;;;;3.77;2.90;;;;;;;27.59;84.54;98121.22;5015507;28;20238;-74
2021/08/22 06:15:12;;;;;;;5.27;3.03;;;;;;;27.36;83.54;98130.47;5013950;28;20869;-72
2021/08/22 06:17:39;;;;;;;3.63;2.90;;;;;;;27.02;83.78;98140.19;5017078;28;20217;-72
2021/08/22 06:20:08;;;;;;;4.13;3.30;;;;;;;27.66;84.23;98121.59;5012916;28;20218;-75
2021/08/22 06:22:35;;;;;;;5.33;3.70;;;;;;;27.95;83.66;98115.78;5010892;28;20231;-75
2021/08/22 06:25:02;;;;;;;3.13;2.83;;;;;;;27.78;83.12;98119.16;5014654;28;20766;-73
2021/08/22 06:27:31;;;;;;;3.27;2.87;;;;;;;28.13;82.27;98115.59;5014463;28;20286;-74
2021/08/22 06:30:00;;;;;;;3.83;3.43;;;;;;;27.55;79.50;98106.50;5023756;28;20211;-77
2021/08/22 06:32:27;;;;;;;3.43;2.93;;;;;;;28.36;84.07;98108.19;5015018;28;20208;-77
2021/08/22 06:34:54;;;;;;;4.23;3.37;;;;;;;28.60;78.18;98106.78;5010089;28;20295;-73
2021/08/22 06:37:22;;;;;;;3.90;3.47;;;;;;;28.37;76.29;98112.56;5017929;28;20282;-75
2021/08/22 06:39:49;;;;;;;5.00;3.07;;;;;;;28.04;80.06;98117.47;5021981;28;20203;-75
2021/08/22 06:42:17;;;;;;;5.17;3.20;;;;;;;28.47;78.59;98118.63;5013718;28;20210;-72
2021/08/22 06:44:45;;;;;;;6.13;3.27;;;;;;;28.61;77.70;98113.06;5012436;28;20241;-74
2021/08/22 06:47:13;;;;;;;5.77;3.60;;;;;;;28.44;77.39;98116.53;5023619;28;20203;-74
2021/08/22 06:49:40;;;;;;;4.67;3.90;;;;;;;28.74;77.00;98118.47;5002550;28;20208;-73
2021/08/22 06:52:09;;;;;;;5.03;3.50;;;;;;;28.48;75.04;98109.25;5008214;28;20207;-73
2021/08/22 06:54:38;;;;;;;4.50;3.23;;;;;;;28.64;76.29;98112.44;5011271;28;20211;-75
2021/08/22 06:57:06;;;;;;;7.30;3.67;;;;;;;28.70;75.61;98120.25;5008402;28;20217;-74
2021/08/22 06:59:33;;;;;;;4.20;3.30;;;;;;;28.91;73.42;98110.31;5012539;28;20202;-73
2021/08/22 07:02:02;;;;;;;6.67;3.87;;;;;;;29.07;69.03;98114.31;5011849;28;20204;-72
2021/08/22 07:04:29;;;;;;;5.57;3.60;;;;;;;28.89;75.33;98109.81;5016266;28;20250;-71
2021/08/22 07:06:56;;;;;;;4.23;3.50;;;;;;;28.54;75.79;98104.47;5011070;28;20204;-74
2021/08/22 07:09:23;;;;;;;6.63;3.60;;;;;;;27.72;78.26;98111.34;5014358;28;20200;-74
2021/08/22 07:11:51;;;;;;;4.27;3.33;;;;;;;28.31;78.95;98106.38;5018980;28;20203;-71
2021/08/22 07:14:18;;;;;;;5.60;3.53;;;;;;;28.69;76.84;98106.81;5016249;28;20227;-75
2021/08/22 07:16:45;;;;;;;4.33;3.53;;;;;;;28.60;74.67;98106.78;5012970;28;20214;-74
2021/08/22 07:19:14;;;;;;;4.33;3.20;;;;;;;28.80;76.08;98106.22;5015913;28;20200;-72
2021/08/22 07:21:41;;;;;;;4.67;3.10;;;;;;;28.13;72.30;98107.38;5017452;28;20206;-73
2021/08/22 07:24:09;;;;;;;4.33;3.27;;;;;;;28.19;74.22;98108.06;5012766;28;20231;-71
2021/08/22 07:26:36;;;;;;;6.03;3.27;;;;;;;28.50;74.59;98107.03;5012243;28;20211;-72
2021/08/22 07:29:04;;;;;;;4.70;3.60;;;;;;;28.68;69.88;98110.69;5015268;28;20303;-73
2021/08/22 07:31:32;;;;;;;6.37;3.37;;;;;;;28.39;71.67;98113.91;5013636;28;20214;-73
2021/08/22 07:33:59;;;;;;;5.17;3.10;;;;;;;28.82;74.15;98105.91;5003737;28;20224;-79
2021/08/22 07:36:28;;;;;;;6.20;3.60;;;;;;;28.94;72.86;98106.13;5017242;28;20230;-77
2021/08/22 07:38:55;;;;;;;5.70;3.30;;;;;;;28.89;71.97;98107.06;5013524;28;20581;-77
2021/08/22 07:41:23;;;;;;;5.70;3.30;;;;;;;29.11;69.79;98104.31;5015312;28;20287;-77
2021/08/22 07:43:50;;;;;;;3.90;3.40;;;;;;;28.88;73.66;98110.16;5005982;28;20234;-78
2021/08/22 07:46:17;;;;;;;4.73;3.17;;;;;;;28.98;69.63;98109.91;5005589;28;20223;-78
2021/08/22 07:48:44;;;;;;;4.93;3.30;;;;;;;29.20;69.58;98118.06;5011179;28;20315;-78
2021/08/22 07:51:12;;;;;;;4.67;3.47;;;;;;;29.80;65.55;98110.81;5007558;28;20219;-78
2021/08/22 07:53:40;;;;;;;4.03;3.13;;;;;;;30.27;65.08;98120.88;5024526;23;20237;-70
2021/08/22 07:56:08;;;;;;;4.43;3.03;;;;;;;29.76;62.94;98126.34;5030781;28;20210;-70
2021/08/22 07:58:35;;;;;;;5.60;3.30;;;;;;;30.18;64.36;98134.66;5029526;28;20209;-71
2021/08/22 08:01:02;;;;;;;5.50;3.13;;;;;;;30.36;62.53;98130.75;5028008;28;20213;-70
2021/08/22 08:03:29;;;;;;;5.47;3.27;;;;;;;30.18;62.37;98126.41;5026941;28;20236;-73
2021/08/22 08:05:57;;;;;;;4.60;3.40;;;;;;;30.57;59.29;98134.47;5011816;28;20237;-70
2021/08/22 08:08:24;;;;;;;5.43;3.67;;;;;;;30.67;58.15;98134.16;5012248;28;20216;-72
2021/08/22 08:10:53;;;;;;;5.77;3.40;;;;;;;30.64;60.73;98139.47;5011708;28;20217;-70
2021/08/22 08:13:20;;;;;;;4.20;2.97;;;;;;;30.66;57.86;98138.03;5012431;28;20254;-72
2021/08/22 08:15:48;;;;;;;4.77;3.20;;;;;;;30.72;57.66;98150.53;5018892;28;20208;-71
2021/08/22 08:18:15;;;;;;;3.70;2.90;;;;;;;30.71;60.02;98143.38;5015350;28;20206;-70
2021/08/22 08:20:42;;;;;;;4.30;3.00;;;;;;;30.68;55.82;98154.25;5008216;28;20210;-70
2021/08/22 08:23:09;;;;;;;4.03;2.70;;;;;;;31.29;53.55;98162.03;5020101;28;20736;-72
2021/08/22 08:25:37;;;;;;;5.47;3.25;;;;;;;31.31;54.96;98151.50;5022157;28;20851;-70
2021/08/22 08:28:06;;;;;;;7.03;3.20;;;;;;;31.45;52.87;98152.06;5016510;28;20675;-71
2021/08/22 08:30:34;;;;;;;4.53;2.90;;;;;;;30.02;56.20;98138.19;5004265;28;20211;-70
2021/08/22 08:33:01;;;;;;;4.57;3.53;;;;;;;31.59;51.57;98150.69;5006894;28;20230;-70
2021/08/22 08:35:28;;;;;;;3.58;2.83;;;;;;;32.33;52.00;98142.59;5013792;28;20561;-70
2021/08/22 08:37:56;;;;;;;4.07;3.00;;;;;;;31.26;50.77;98152.47;5020723;28;20718;-70
2021/08/22 08:40:23;;;;;;;3.55;2.88;;;;;;;30.31;56.58;98144.69;5021735;28;20202;-70
2021/08/22 08:42:51;;;;;;;4.30;3.33;;;;;;;31.85;49.36;98159.66;5015683;28;20207;-71
2021/08/22 08:45:22;;;;;;;5.75;3.15;;;;;;;31.87;49.62;98165.66;5008650;28;20230;-71
2021/08/22 08:47:51;;;;;;;4.35;3.33;;;;;;;32.32;48.14;98157.53;5011155;28;20581;-71
2021/08/22 08:50:24;;;;;;;4.90;3.08;;;;;;;31.92;48.99;98162.69;5002770;28;20207;-74
2021/08/22 08:52:53;;;;;;;3.17;2.80;;;;;;;32.25;47.55;98165.53;5016140;28;20213;-73
2021/08/22 08:55:23;;;;;;;3.80;2.97;;;;;;;31.06;52.89;98152.38;5019820;28;20223;-71
2021/08/22 08:57:51;;;;;;;4.57;3.25;;;;;;;32.07;50.65;98162.09;5022075;28;20206;-72
2021/08/22 09:00:19;;;;;;;5.32;3.15;;;;;;;32.43;47.38;98167.06;5015827;28;20230;-71
2021/08/22 09:02:47;;;;;;;3.60;3.10;;;;;;;32.58;46.48;98163.66;5008627;28;20209;-72
2021/08/22 09:05:18;;;;;;;4.47;2.83;;;;;;;31.61;48.81;98169.66;5011214;28;20223;-72
2021/08/22 09:08:23;;;;;;;5.88;3.10;;;;;;;31.56;50.46;98178.94;5018718;28;20218;-71
2021/08/22 09:11:39;;;;;;;6.57;3.25;;;;;;;30.30;53.25;98172.56;5015398;28;20206;-71
2021/08/22 09:14:45;;;;;;;4.30;3.15;;;;;;;30.39;55.11;98167.84;5011546;28;20237;-71
2021/08/22 09:17:50;;;;;;;4.85;3.40;;;;;;;31.27;49.75;98176.16;4985111;28;20195;-73
2021/08/22 09:20:53;;;;;;;4.15;2.92;;;;;;;31.92;46.62;98178.47;5007064;28;20202;-72
2021/08/22 09:23:53;;;;;;;3.67;2.72;;;;;;;32.32;46.81;98163.88;4988687;28;20228;-71
2021/08/22 09:26:59;;;;;;;3.38;3.08;;;;;;;31.80;48.59;98150.75;5007675;28;20694;-71
2021/08/22 09:30:18;;;;;;;3.40;2.60;;;;;;;33.56;43.10;98175.47;4980748;28;20217;-71
2021/08/22 09:33:24;;;;;;;4.18;3.10;;;;;;;32.67;44.48;98175.44;5009266;28;20211;-71
2021/08/22 09:36:33;;;;;;;3.95;3.05;;;;;;;31.58;47.21;98179.41;5016378;28;20212;-76
2021/08/22 09:39:38;;;;;;;4.63;2.83;;;;;;;31.44;48.95;98169.75;5020352;28;20214;-71
2021/08/22 09:42:54;;;;;;;4.25;3.00;;;;;;;30.77;52.16;98158.59;5013530;28;20210;-73
2021/08/22 09:46:07;;;;;;;6.25;3.40;;;;;;;31.08;49.88;98158.34;5007323;28;20245;-72
2021/08/22 09:49:11;;;;;;;4.22;3.15;;;;;;;31.63;47.90;98164.63;5004751;28;20223;-71
2021/08/22 09:52:23;;;;;;;5.07;3.42;;;;;;;31.89;47.59;98159.78;5015878;28;20217;-71
2021/08/22 09:55:46;;;;;;;3.83;3.08;;;;;;;30.80;51.37;98155.19;5016910;28;20699;-71
2021/08/22 09:58:55;;;;;;;3.65;3.00;;;;;;;31.24;51.31;98165.78;5013063;28;20213;-71
2021/08/22 10:01:56;;;;;;;3.72;3.22;;;;;;;31.28;50.95;98163.19;4985479;28;20214;-72
2021/08/22 10:04:47;;;;;;;4.82;3.25;;;;;;;31.75;48.09;98162.81;5014445;28;20245;-71
2021/08/22 10:07:38;;;;;;;5.20;3.30;;;;;;;31.44;49.87;98156.78;5015226;28;20237;-71
2021/08/22 10:10:08;;;;;;;4.00;3.08;;;;;;;30.65;54.17;98158.44;5012964;28;20212;-71
2021/08/22 10:12:36;;;;;;;4.22;3.30;;;;;;;29.33;56.62;98152.88;5006417;28;20207;-71
2021/08/22 10:15:04;;;;;;;5.03;3.80;;;;;;;29.92;57.45;98149.50;5012621;28;20207;-71
2021/08/22 10:17:33;;;;;;;4.13;3.33;;;;;;;29.75;57.46;98157.75;5006793;28;20214;-71
2021/08/22 10:20:00;;;;;;;5.93;3.70;;;;;;;29.56;57.97;98152.53;5006963;28;20208;-71
2021/08/22 10:22:37;;;;;;;7.70;4.30;;;;;;;28.57;65.14;98150.50;5012777;28;20205;-72
2021/08/22 10:25:05;;;;;;;7.37;3.57;;;;;;;28.55;64.74;98144.53;5012412;28;20290;-71
2021/08/22 10:28:02;;;;;;;6.07;3.93;;;;;;;28.78;63.99;98146.16;5013755;28;20587;-71
2021/08/22 10:30:30;;;;;;;4.47;3.70;;;;;;;28.30;69.02;98156.94;4996540;28;20295;-71
2021/08/22 10:33:17;;;;;;;4.13;3.37;;;;;;;27.89;72.53;98155.41;5010867;28;20592;-71
2021/08/22 10:35:44;;;;;;;6.40;4.03;;;;;;;27.35;77.96;98142.56;5019917;28;20203;-71
2021/08/22 10:38:23;;;;;;;6.50;4.50;;;;;;;28.41;73.60;98152.00;5028136;28;20219;-72
2021/08/22 10:40:51;;;;;;;11.10;4.23;;;;;;;28.96;71.11;98154.16;5015164;28;20206;-71
2021/08/22 10:43:38;;;;;;;6.43;4.20;;;;;;;28.31;71.38;98149.47;5005951;28;20224;-71
2021/08/22 10:46:06;;;;;;;7.93;4.10;;;;;;;28.67;76.55;98139.25;5000041;28;20653;-71
2021/08/22 10:48:52;;;;;;;5.20;4.17;;;;;;;29.02;73.51;98141.09;5017689;28;20211;-71
2021/08/22 10:51:20;;;;;;;5.43;4.17;;;;;;;27.83;77.79;98137.47;5020384;28;20264;-72
2021/08/22 10:53:50;;;;;;;5.00;4.13;;;;;;;27.71;78.72;98146.19;5020023;28;20247;-71
2021/08/22 10:56:40;;;;;;;4.67;4.13;;;;;;;28.23;77.31;98151.03;5012470;28;20282;-71
2021/08/22 10:59:10;;;;;;;6.93;4.40;;;;;;;29.01;75.02;98154.06;5013148;28;20210;-70
2021/08/22 11:01:42;;;;;;;4.87;4.00;;;;;;;28.23;77.63;98153.78;5020623;28;20211;-70
2021/08/22 11:04:14;;;;;;;10.40;4.50;;;;;;;27.29;83.74;98153.94;5019522;28;20233;-70
2021/08/22 11:07:02;;;;;;;6.30;4.10;;;;;;;28.71;76.94;98148.50;5007631;28;20234;-70
2021/08/22 11:09:41;;;;;;;7.30;4.47;;;;;;;27.68;83.20;98148.72;4998924;28;20645;-72
2021/08/22 11:12:23;;;;;;;6.37;4.63;;;;;;;29.12;77.50;98165.56;5006506;28;20217;-71
2021/08/22 11:14:52;;;;;;;6.43;4.43;;;;;;;27.21;83.96;98177.38;5016462;28;20228;-71
2021/08/22 11:17:19;;;;;;;2.97;2.43;;;;;;;26.95;73.40;98175.41;5011437;28;20199;-71
2021/08/22 11:19:47;;;;;;;3.30;2.33;;;;;;;26.22;74.21;98183.44;5007394;28;20216;-69
2021/08/22 11:22:26;;;;;;;3.47;2.00;;;;;;;26.15;72.97;98180.25;5005555;28;20698;-72
2021/08/22 11:24:54;;;;;;;2.80;2.00;;;;;;;25.97;72.28;98183.00;5002592;28;20223;-69
2021/08/22 11:27:22;;;;;;;2.60;1.97;;;;;;;25.24;75.87;98185.22;5008315;28;20230;-70
2021/08/22 11:29:58;;;;;;;1.87;1.60;;;;;;;26.36;73.06;98192.50;5020492;28;20211;-70
2021/08/22 11:32:26;;;;;;;6.97;1.83;;;;;;;26.27;78.75;98191.56;5025574;28;20209;-70
2021/08/22 11:34:54;;;;;;;4.13;1.90;;;;;;;25.86;87.85;98186.94;5005980;28;20243;-71
2021/08/22 11:37:22;;;;;;;6.10;1.90;;;;;;;26.48;83.58;98187.41;5006107;28;20204;-71
2021/08/22 11:39:50;;;;;;;2.17;1.70;;;;;;;26.49;79.02;98193.69;5009325;28;20207;-71
2021/08/22 11:42:22;;;;;;;3.10;1.77;;;;;;;26.43;78.80;98203.09;5007966;28;20199;-70
2021/08/22 11:44:49;;;;;;;2.20;1.67;;;;;;;26.20;79.34;98196.59;5014733;28;20228;-71
2021/08/22 11:47:18;;;;;;;1.60;1.17;;;;;;;26.72;76.81;98190.06;5005000;28;20223;-70
2021/08/22 11:49:45;;;;;;;2.80;1.30;;;;;;;25.50;80.40;98180.31;5008602;28;20208;-71
2021/08/22 11:52:13;;;;;;;1.60;1.10;;;;;;;25.73;82.13;98183.00;5010508;28;20655;-72
2021/08/22 11:54:40;;;;;;;2.23;1.67;;;;;;;26.19;79.26;98189.50;5007269;28;20246;-71